Date StartTime U_cm/s V_cm/s W_cm/s Ustd_cm/s Vstd_cm/s Wstd_cm/s Uvar_(cm/s)^2 Vvar_(cm/s)^2 Wvar_(cm/s)^2 KE_(m/s)^2 TurbulentKE_(m/s)^2 HorizWindSpeed_cm/s FrictionSpeec_cm/s DragCoef SpeedOfSound_m/s SonicTemperature_C Pressure_mb 
09/23/2013  00:00:00       22.358      -15.945       12.167       21.600       19.316       19.675      466.550      373.110      387.098        0.106        0.061       27.461       16.144        0.346      338.910       11.883      861.301
09/23/2013  00:01:00       22.266      -35.875        0.847       17.429       28.141       20.864      303.786      791.897      435.305        0.166        0.077       42.223       18.705        0.196      338.924       11.904      861.314
09/23/2013  00:02:00       45.205      -47.200       -8.207       19.154       20.329        9.760      366.858      413.282       95.263        0.261        0.044       65.355        9.708        0.022      338.956       11.959      861.322
09/23/2013  00:03:00        9.293      -21.602        7.404       24.140       16.493       14.419      582.755      272.035      207.895        0.084        0.053       23.516        8.875        0.142      338.910       11.883      861.330
09/23/2013  00:04:00       -1.550      -53.290        0.746       25.017       37.758       24.336      625.830     1425.674      592.232        0.274        0.132       53.313       21.217        0.158      339.043       12.106      861.343
09/23/2013  00:05:00        7.581      -60.842       -5.916       21.449       27.846       19.054      460.071      775.401      363.046        0.270        0.080       61.312        9.914        0.026      339.191       12.356      861.351
09/23/2013  00:06:00      -38.906      -16.538       -2.497       24.048       15.147       10.837      578.318      229.435      117.434        0.136        0.046       42.275        9.788        0.054      339.094       12.192      861.350
09/23/2013  00:07:00      -67.484      -21.828       -8.964        9.795       10.947        7.997       95.946      119.840       63.958        0.270        0.014       70.927        5.459        0.006      339.027       12.079      861.328
09/23/2013  00:08:00      -78.293      -39.385      -13.175       14.836       10.800        9.117      220.112      116.631       83.120        0.414        0.021       87.641        6.449        0.005      339.026       12.077      861.307
09/23/2013  00:09:00      -90.101      -36.244      -11.551       13.793       10.661        7.461      190.235      113.653       55.669        0.496        0.018       97.118        5.947        0.004      338.930       11.916      861.277
09/23/2013  00:10:00      -65.785      -38.852       -8.376       25.483       13.194       13.885      649.403      174.086      192.786        0.346        0.051       76.401       10.531        0.019      338.950       11.949      861.257
09/23/2013  00:11:00      -90.907      -56.496       -6.881       15.674       17.174       14.944      245.671      294.960      223.312        0.613        0.038      107.032        9.662        0.008      339.058       12.131      861.233
09/23/2013  00:12:00      -88.170      -44.648       -7.028       18.524       19.530       14.203      343.154      381.424      201.717        0.537        0.046       98.831        9.194        0.009      339.171       12.322      861.202
09/23/2013  00:13:00      -82.165      -21.238        1.372       23.888       24.741       13.546      570.618      612.142      183.507        0.428        0.068       84.865       14.103        0.028      338.891       11.849      861.182
09/23/2013  00:14:00      -92.172        4.356      -12.541       30.137       30.836       17.800      908.268      950.843      316.842        0.542        0.109       92.275       15.489        0.028      339.062       12.139      861.181
09/23/2013  00:15:00      -79.458      -43.632       -1.084       40.902       19.797       16.253     1672.999      391.903      264.159        0.527        0.116       90.649       20.127        0.049      339.006       12.044      861.184
09/23/2013  00:16:00      -76.989      -22.353       -0.330       21.496       22.897       14.271      462.096      524.256      203.651        0.381        0.060       80.168       11.530        0.021      339.086       12.178      861.191
09/23/2013  00:17:00      -85.589      -38.865       -2.338       23.490       21.391       14.743      551.800      457.576      217.352        0.503        0.061       93.999       13.711        0.021      338.994       12.025      861.208
09/23/2013  00:18:00      -69.942      -57.166        3.686       39.872       35.000       20.874     1589.759     1225.002      435.721        0.571        0.163       90.332       21.145        0.055      339.011       12.053      861.211
09/23/2013  00:19:00     -106.543      -21.806       -5.914       35.624       40.297       23.513     1269.034     1623.853      552.856        0.765        0.172      108.752       17.995        0.027      339.043       12.105      861.227
09/23/2013  00:20:00      -79.248      -32.499      -10.578       37.561       17.582       14.415     1410.802      309.129      207.785        0.469        0.096       85.653       15.755        0.034      339.136       12.263      861.243
09/23/2013  00:21:00       11.060       16.057       31.008       35.452       23.753       20.287     1256.845      564.193      411.559        0.179        0.112       19.497       11.561        0.352      338.996       12.027      861.251
09/23/2013  00:22:00     -118.139       75.159      -34.398       55.833       54.230       25.896     3117.301     2940.904      670.578        1.376        0.336      140.020       34.211        0.060      339.110       12.219      861.275
09/23/2013  00:23:00      -86.308      -12.680      -11.209       51.617       69.073       25.794     2664.302     4771.103      665.346        0.792        0.405       87.235       24.761        0.081      339.154       12.293      861.275
09/23/2013  00:24:00      -99.614      -55.061        5.647       86.288       54.665       28.224     7445.614     2988.259      796.576        1.211        0.562      113.819       35.660        0.098      339.099       12.199      861.274
09/23/2013  00:25:00      -87.656      -31.550       -1.626       34.990       33.497       22.936     1224.301     1122.076      526.076        0.578        0.144       93.161       12.535        0.018      339.120       12.235      861.276
09/23/2013  00:26:00     -103.090      -45.281       -7.859       37.979       36.675       21.787     1442.431     1345.064      474.675        0.800        0.163      112.597       13.124        0.014      339.083       12.172      861.280
09/23/2013  00:27:00      -76.657      -41.803        2.586       49.903       46.074       32.204     2490.277     2122.830     1037.107        0.664        0.283       87.315       23.382        0.072      339.002       12.037      861.295
09/23/2013  00:28:00     -148.379      -35.551       -3.751       71.099       37.670       28.086     5055.127     1419.032      788.836        1.528        0.363      152.578       29.327        0.037      338.966       11.976      861.301
09/23/2013  00:29:00     -154.216      -38.940        1.832       74.319       49.757       35.996     5523.344     2475.715     1295.704        1.730        0.465      159.056       36.366        0.052      338.867       11.808      861.301
09/23/2013  00:30:00     -184.077      -14.211      -10.799       56.666       47.850       24.496     3211.046     2289.659      600.060        2.015        0.305      184.625       25.928        0.020      338.927       11.910      861.310
09/23/2013  00:31:00     -185.327      -48.265      -26.885       66.329       42.653       30.838     4399.535     1819.275      950.968        2.228        0.358      191.509       29.909        0.024      338.930       11.914      861.310
09/23/2013  00:32:00     -110.853      -27.975      -12.680       44.062       48.657       33.530     1941.429     2367.476     1124.287        0.933        0.272      114.329       23.453        0.042      338.900       11.866      861.310
09/23/2013  00:33:00     -124.880      -47.151      -10.112       50.335       66.591       28.546     2533.654     4434.399      814.879        1.285        0.389      133.485       27.006        0.041      338.920       11.897      861.322
09/23/2013  00:34:00     -156.138      -57.575       -5.877       44.442       33.305       26.624     1975.112     1109.190      708.846        1.576        0.190      166.415       23.301        0.020      338.880       11.831      861.328
09/23/2013  00:35:00     -115.633      -51.287        0.110       53.090       27.103       19.074     2818.590      734.561      363.823        0.996        0.196      126.496       19.707        0.024      338.870       11.815      861.331
09/23/2013  00:36:00     -114.116      -44.557       -3.659       25.601       28.891       16.172      655.386      834.715      261.529        0.839        0.088      122.507        9.145        0.006      338.846       11.773      861.348
09/23/2013  00:37:00      -18.631      -37.966        6.008       23.225       21.962       14.959      539.413      482.342      223.772        0.153        0.062       42.291       14.143        0.112      338.883       11.838      861.371
09/23/2013  00:38:00      -23.357      -57.591        9.893       34.050       36.390       23.839     1159.436     1324.246      568.298        0.351        0.153       62.147       17.748        0.082      338.926       11.910      861.398
09/23/2013  00:39:00      -20.929      -13.792        4.065       17.532       21.200       14.312      307.358      449.422      204.824        0.080        0.048       25.065       10.110        0.163      338.802       11.701      861.420
09/23/2013  00:40:00      -28.726        3.276        4.397       14.052       14.738       10.585      197.454      217.209      112.051        0.069        0.026       28.912        8.085        0.078      338.770       11.645      861.430
09/23/2013  00:41:00       -4.227      -18.482        3.497       12.643       18.372       10.349      159.850      337.548      107.110        0.049        0.030       18.959        5.101        0.072      338.809       11.710      861.444
09/23/2013  00:42:00       36.873       27.319       -2.127       20.572       27.410       20.884      423.211      751.285      436.157        0.186        0.081       45.891       14.138        0.095      338.931       11.917      861.455
09/23/2013  00:43:00       44.597       80.458       51.222       37.634       37.634       37.347     1416.297     1416.284     1394.821        0.766        0.211       91.991       19.545        0.045      338.939       11.931      861.454
09/23/2013  00:44:00      108.499       87.250       34.858       40.344       24.255       34.952     1627.659      588.307     1221.632        1.202        0.172      139.228       23.414        0.028      338.811       11.716      861.468
09/23/2013  00:45:00      140.887       80.700       11.980       39.450       27.461       33.672     1556.281      754.121     1133.784        1.497        0.172      162.363       22.974        0.020      338.643       11.434      861.481
09/23/2013  00:46:00      147.895       72.871       21.370       40.093       28.997       29.204     1607.440      840.810      852.854        1.547        0.165      164.873       14.393        0.008      338.647       11.440      861.496
09/23/2013  00:47:00      123.802       44.149       11.948       43.821       39.571       28.142     1920.321     1565.834      791.948        1.085        0.214      131.439        8.056        0.004      338.647       11.440      861.528
09/23/2013  00:48:00       70.094       32.937        8.593       46.543       29.998       27.470     2166.234      899.882      754.622        0.495        0.191       77.447       22.666        0.086      338.680       11.497      861.559
09/23/2013  00:49:00       38.403       30.665       35.301       32.543       21.664       16.752     1059.067      469.320      280.630        0.273        0.090       49.145       13.848        0.079      338.629       11.410      861.584
09/23/2013  00:50:00       20.239       12.711       35.920       27.550       36.945       26.593      759.013     1364.915      707.164        0.235        0.142       23.900       28.800        1.452      338.771       11.650      861.599
09/23/2013  00:51:00       -7.787        0.973       25.112       10.743       22.067       10.998      115.417      486.949      120.956        0.071        0.036        7.847        8.754        1.244      338.712       11.550      861.612
09/23/2013  00:52:00       -2.453      -19.082        3.933       13.720       31.000       14.807      188.226      960.978      219.244        0.088        0.068       19.239       18.529        0.927      338.795       11.689      861.618
09/23/2013  00:53:00        0.660      -47.171       -0.960       19.086       16.821       21.869      364.294      282.937      478.267        0.168        0.056       47.175       14.280        0.092      338.952       11.954      861.620
09/23/2013  00:54:00       20.853        9.515       15.576       20.669       17.041       17.840      427.191      290.394      318.268        0.090        0.052       22.921       13.403        0.342      338.792       11.684      861.632
09/23/2013  00:55:00       -1.165      -27.159        7.542       13.059       22.388       15.363      170.530      501.229      236.011        0.085        0.045       27.184        9.523        0.123      338.863       11.804      861.648
09/23/2013  00:56:00       -8.148      -42.313       -3.352       23.011       19.242       17.315      529.489      370.268      299.813        0.153        0.060       43.090       15.481        0.129      339.007       12.045      861.660
09/23/2013  00:57:00        6.498      -16.130       -1.353       19.851       22.585       15.944      394.061      510.085      254.204        0.073        0.058       17.390       17.594        1.024      338.905       11.875      861.670
09/23/2013  00:58:00        5.111       19.644       28.103       12.888       12.280       15.829      166.094      150.805      250.547        0.088        0.028       20.298       10.097        0.247      338.727       11.574      861.677
09/23/2013  00:59:00       20.151       29.864       41.833       25.174       25.796       21.974      633.725      665.458      482.851        0.241        0.089       36.027       21.643        0.361      338.883       11.836      861.687
09/23/2013  01:00:00       17.211       73.407       68.235       25.099       27.560       20.959      629.982      759.552      439.283        0.608        0.091       75.398       15.406        0.042      338.848       11.778      861.687
09/23/2013  01:01:00       46.772       73.477       49.282       25.707       28.161       26.198      660.830      793.056      686.333        0.608        0.107       87.101       16.608        0.036      338.934       11.922      861.687
09/23/2013  01:02:00       33.087       35.098       46.841       34.633       29.163       19.273     1199.452      850.452      371.441        0.347        0.121       48.235       14.292        0.088      339.030       12.085      861.680
09/23/2013  01:03:00        6.695      -13.694       26.960       18.429       32.468       18.780      339.611     1054.184      352.704        0.135        0.087       15.243       20.649        1.835      339.023       12.073      861.675
09/23/2013  01:04:00       -9.636      -57.687        5.020       14.820       18.351       12.622      219.630      336.748      159.314        0.208        0.036       58.486        9.135        0.024      339.129       12.251      861.672
09/23/2013  01:05:00        0.938       -6.882       14.982       19.378       24.969       14.880      375.504      623.465      221.425        0.075        0.061        6.946       11.751        2.862      338.971       11.985      861.676
09/23/2013  01:06:00       19.870      -42.823       -0.914       17.397       24.567       14.158      302.643      603.528      200.459        0.167        0.055       47.208       14.362        0.093      339.028       12.081      861.680
09/23/2013  01:07:00        3.782       16.352       30.934       11.055       13.113        9.188      122.208      171.946       84.424        0.081        0.019       16.783        8.999        0.287      338.853       11.787      861.692
09/23/2013  01:08:00        0.726        8.644       29.204        8.542       16.999       10.348       72.962      288.954      107.085        0.070        0.023        8.674        9.600        1.225      338.862       11.801      861.697
09/23/2013  01:09:00       21.992      -35.923        1.329       13.253       21.939        9.886      175.645      481.317       97.728        0.127        0.038       42.120        8.512        0.041      338.951       11.950      861.691
09/23/2013  01:10:00       16.321      -14.188       17.193       11.951       16.009        9.811      142.834      256.301       96.264        0.063        0.025       21.626        8.766        0.164      338.888       11.846      861.693
09/23/2013  01:11:00        6.878        3.849        6.481        9.649        9.921        8.061       93.099       98.434       64.974        0.018        0.013        7.881        8.840        1.258      338.761       11.631      861.691
09/23/2013  01:12:00       -1.563        9.104        9.154       10.005        6.617        7.836      100.095       43.785       61.404        0.019        0.010        9.237        6.583        0.508      338.786       11.672      861.705
09/23/2013  01:13:00      -10.487       13.755        2.239       12.819        7.177        7.846      164.326       51.513       61.555        0.029        0.014       17.297        8.157        0.222      338.951       11.953      861.700
09/23/2013  01:14:00       21.186        7.034       12.101       10.159        8.219        7.257      103.199       67.559       52.657        0.043        0.011       22.323        2.479        0.012      338.771       11.648      861.690
09/23/2013  01:15:00       11.019      -18.628        3.597       11.930       25.548        6.602      142.333      652.697       43.581        0.066        0.042       21.643        7.725        0.127      338.901       11.869      861.682
09/23/2013  01:16:00       33.397      -13.982       10.438       23.035       17.768       11.491      530.593      315.692      132.039        0.120        0.049       36.206       12.808        0.125      338.916       11.892      861.671
09/23/2013  01:17:00       10.806      -35.963       -5.760       12.130       16.764        8.823      147.135      281.045       77.851        0.097        0.025       37.551        6.859        0.033      338.908       11.878      861.670
09/23/2013  01:18:00        8.350      -18.678        1.251        9.806        9.687       14.900       96.161       93.831      222.003        0.042        0.021       20.459        9.481        0.215      338.804       11.703      861.676
09/23/2013  01:19:00       16.467      -17.540        4.149       15.299       14.850        9.984      234.065      220.529       99.686        0.058        0.028       24.058       10.772        0.200      338.809       11.713      861.682
09/23/2013  01:20:00       57.502      -63.147        0.310       26.245       22.096       16.685      688.821      488.250      278.392        0.437        0.073       85.405       12.566        0.022      338.946       11.942      861.691
09/23/2013  01:21:00       27.671      -26.568        8.965       31.343       43.036       21.915      982.372     1852.124      480.248        0.243        0.166       38.360       24.863        0.420      338.804       11.704      861.697
09/23/2013  01:22:00      -24.974      -32.567       -2.724       19.209       30.515       18.736      368.990      931.146      351.022        0.167        0.083       41.040       18.423        0.202      338.902       11.871      861.707
09/23/2013  01:23:00        9.471      -71.983       -2.450       36.578       31.983       20.755     1337.957     1022.891      430.773        0.403        0.140       72.604       21.388        0.087      338.911       11.882      861.718
09/23/2013  01:24:00      -35.471      -31.381       -1.148       38.055       21.464       17.973     1448.212      460.711      323.011        0.224        0.112       47.360       11.110        0.055      338.891       11.851      861.713
09/23/2013  01:25:00      -19.921      -18.546       -0.503       30.514       16.344       15.058      931.078      267.135      226.750        0.108        0.071       27.218        7.022        0.067      338.738       11.594      861.710
09/23/2013  01:26:00       11.892      -37.526       11.390       41.750       26.711       22.537     1743.028      713.504      507.903        0.232        0.148       39.365       20.451        0.270      338.746       11.607      861.699
09/23/2013  01:27:00      -53.260      -41.967        8.012       46.272       26.769       21.087     2141.126      716.601      444.672        0.398        0.165       67.808       21.230        0.098      338.647       11.440      861.699
09/23/2013  01:28:00      -27.630      -46.562        5.042       53.035       33.062       20.507     2812.676     1093.123      420.520        0.364        0.216       54.143       15.154        0.078      338.652       11.449      861.699
09/23/2013  01:29:00      -41.733      -37.354        9.933       34.967       30.935       22.722     1222.672      956.993      516.270        0.297        0.135       56.009       20.070        0.128      338.561       11.297      861.692
09/23/2013  01:30:00      -32.274      -29.668       -3.523       33.000       23.006       20.116     1088.971      529.294      404.647        0.198        0.101       43.838       17.501        0.159      338.595       11.353      861.691
09/23/2013  01:31:00       -1.844      -29.412        5.743       16.367       20.676       14.272      267.864      427.480      203.683        0.090        0.045       29.469       10.070        0.117      338.629       11.410      861.684
09/23/2013  01:32:00      -73.246      -35.693        1.618       39.805       41.455       24.120     1584.453     1718.555      581.776        0.526        0.194       81.480       25.422        0.097      338.521       11.229      861.684
09/23/2013  01:33:00      -62.816      -45.440        9.459       51.432       36.070       25.808     2645.235     1301.023      666.061        0.536        0.231       77.528       29.092        0.141      338.455       11.119      861.687
09/23/2013  01:34:00      -77.270      -53.281        3.955       46.544       38.594       23.875     2166.321     1489.500      570.025        0.652        0.211       93.858       20.426        0.047      338.421       11.061      861.687
09/23/2013  01:35:00      -78.981      -77.708        1.957       46.207       43.681       21.690     2135.041     1908.027      470.471        0.840        0.226      110.800       16.329        0.022      338.483       11.166      861.682
09/23/2013  01:36:00     -106.790      -91.099       -4.851       43.561       50.329       26.047     1897.568     2533.008      678.470        1.242        0.255      140.368       20.752        0.022      338.472       11.145      861.673
09/23/2013  01:37:00     -112.797      -85.012        1.721       58.826       53.030       36.070     3460.472     2812.176     1301.025        1.376        0.379      141.245       38.142        0.073      338.378       10.989      861.666
09/23/2013  01:38:00     -130.236     -111.623       -6.961       53.354       43.655       33.141     2846.613     1905.769     1098.324        1.766        0.293      171.526       30.185        0.031      338.352       10.944      861.671
09/23/2013  01:39:00     -139.313      -89.235       -6.367       45.172       44.418       33.304     2040.507     1972.927     1109.174        1.627        0.256      165.442       29.721        0.032      338.275       10.816      861.678
09/23/2013  01:40:00     -133.521      -83.031        0.556       36.179       47.184       31.332     1308.911     2226.337      981.722        1.462        0.226      157.233       23.231        0.022      338.301       10.859      861.688
09/23/2013  01:41:00      -67.898      -62.787        5.404       46.040       45.129       23.032     2119.709     2036.592      530.459        0.663        0.234       92.479       20.067        0.047      338.340       10.924      861.709
09/23/2013  01:42:00      -73.501      -80.977        1.508       41.901       37.310       24.441     1755.680     1392.063      597.370        0.785        0.187      109.361       28.216        0.067      338.288       10.839      861.731
09/23/2013  01:43:00      -97.911      -81.497        5.698       59.132       36.141       32.882     3496.650     1306.166     1081.230        1.107        0.294      127.391       38.524        0.091      338.236       10.750      861.737
09/23/2013  01:44:00      -89.883      -76.417        0.723       42.424       37.321       26.579     1799.814     1392.836      706.442        0.891        0.195      117.976       26.711        0.051      338.242       10.761      861.749
09/23/2013  01:45:00      -91.620      -69.015        8.060       55.464       33.668       31.804     3076.272     1133.555     1011.490        0.922        0.261      114.705       32.049        0.078      338.157       10.617      861.750
09/23/2013  01:46:00     -117.422      -79.156       -7.558       30.245       32.097       15.164      914.790     1030.233      229.958        1.114        0.109      141.611        9.399        0.004      338.180       10.656      861.750
09/23/2013  01:47:00     -129.187      -98.326       -7.275       31.413       44.789       23.961      986.786     2006.023      574.146        1.499        0.178      162.349       17.326        0.011      338.137       10.583      861.762
09/23/2013  01:48:00     -102.756      -87.004       -4.008       39.888       46.966       25.733     1591.038     2205.769      662.181        1.130        0.223      134.642       25.497        0.036      338.112       10.543      861.770
09/23/2013  01:49:00      -85.579      -49.843        2.000       49.912       27.850       24.664     2491.236      775.613      608.311        0.684        0.194       99.036       27.484        0.077      338.054       10.445      861.775
09/23/2013  01:50:00      -64.199      -63.857        3.410       40.427       38.060       27.909     1634.336     1448.590      778.932        0.604        0.193       90.549       30.422        0.113      338.045       10.430      861.773
09/23/2013  01:51:00      -45.690      -23.172        0.593       31.434       37.405       24.224      988.114     1399.100      586.784        0.280        0.149       51.230       21.551        0.177      338.005       10.363      861.768
09/23/2013  01:52:00      -74.766        2.706       -1.699       24.915       21.736       17.030      620.737      472.454      290.025        0.349        0.069       74.815       15.302        0.042      337.889       10.167      861.776
09/23/2013  01:53:00      -64.961      -19.912       -3.602       22.023       20.255       16.388      485.006      410.278      268.568        0.290        0.058       67.944       12.471        0.034      337.896       10.179      861.786
09/23/2013  01:54:00     -105.114       11.367       -7.418       24.663       18.700       16.733      608.271      349.686      279.986        0.624        0.062      105.727       11.949        0.013      337.827       10.063      861.790
09/23/2013  01:55:00      -86.688      -20.414        0.095       29.521       25.520       19.875      871.464      651.292      395.026        0.492        0.096       89.059       17.788        0.040      337.839       10.083      861.793
09/23/2013  01:56:00      -87.932      -11.449        0.082       27.565       23.507       13.422      759.847      552.592      180.155        0.468        0.075       88.674       13.313        0.023      337.776        9.978      861.794
09/23/2013  01:57:00      -76.442      -22.586       -0.596       29.050       19.057       17.005      843.911      363.177      289.175        0.392        0.075       79.709       17.975        0.051      337.804       10.026      861.803
09/23/2013  01:58:00      -49.004      -15.764        3.918       27.848       20.338       16.191      775.529      413.632      262.164        0.206        0.073       51.477       15.549        0.091      337.689        9.833      861.812
09/23/2013  01:59:00      -64.377       -9.539       -6.726       30.321       26.045       11.857      919.360      678.323      140.585        0.301        0.087       65.080        8.759        0.018      337.708        9.865      861.814
09/23/2013  02:00:00      -69.823      -17.604       -7.746       14.473       27.772       12.219      209.460      771.309      149.314        0.319        0.057       72.008        7.539        0.011      337.679        9.815      861.808
09/23/2013  02:01:00      -70.021      -34.401        2.307       29.888       24.100       18.647      893.285      580.820      347.701        0.396        0.091       78.015       12.542        0.026      337.817       10.048      861.799
09/23/2013  02:02:00      -48.281      -42.345        2.788       33.017       23.310       13.667     1090.091      543.343      186.774        0.298        0.091       64.219       12.788        0.040      337.846       10.095      861.799
09/23/2013  02:03:00      -41.360      -36.480       -2.263       33.703       22.221       14.870     1135.922      493.780      221.122        0.245        0.093       55.149       11.630        0.044      337.837       10.082      861.800
09/23/2013  02:04:00      -19.887      -21.303       -7.785       21.859       22.028       16.340      477.810      485.242      267.007        0.107        0.062       29.143       15.482        0.282      337.880       10.152      861.797
09/23/2013  02:05:00      -36.863      -12.748       -3.162       10.445        7.296        7.710      109.088       53.226       59.450        0.088        0.011       39.005        6.869        0.031      337.779        9.983      861.790
09/23/2013  02:06:00      -33.347      -11.612       -3.949        8.314        7.424        7.640       69.123       55.114       58.363        0.072        0.009       35.311        4.754        0.018      337.805       10.026      861.787
09/23/2013  02:07:00      -50.727      -10.109       -9.100        8.837        8.402        7.039       78.100       70.591       49.550        0.148        0.010       51.725        5.017        0.009      337.864       10.127      861.795
09/23/2013  02:08:00      -37.667      -20.576        0.033       14.256       11.014        7.326      203.246      121.303       53.677        0.111        0.019       42.920        5.976        0.019      337.880       10.153      861.795
09/23/2013  02:09:00      -28.337      -14.798       -0.543       13.370        9.481        8.852      178.766       89.895       78.360        0.068        0.017       31.968        8.877        0.077      337.855       10.111      861.799
09/23/2013  02:10:00       -8.568      -20.821      -11.244       15.091        9.162        6.004      227.747       83.938       36.053        0.049        0.017       22.515        7.325        0.106      337.863       10.125      861.808
09/23/2013  02:11:00       11.009       -9.916       -0.378        5.745        9.144        6.450       33.003       83.620       41.603        0.019        0.008       14.817        4.921        0.110      337.847       10.098      861.806
09/23/2013  02:12:00        1.116       -7.440        6.409        5.031        8.076        7.737       25.310       65.214       59.860        0.012        0.008        7.523        3.925        0.272      337.861       10.119      861.806
09/23/2013  02:13:00        0.191       -5.726        6.474       11.958        5.920        5.469      143.000       35.049       29.911        0.014        0.010        5.729        6.269        1.198      337.825       10.062      861.818
09/23/2013  02:14:00      -28.159        4.258       -2.435        7.480        7.453        4.536       55.951       55.541       20.577        0.047        0.007       28.479        2.582        0.008      337.764        9.959      861.812
09/23/2013  02:15:00      -37.365       -0.027       -2.981        7.968        8.907        6.529       63.490       79.326       42.630        0.080        0.009       37.365        5.385        0.021      337.712        9.871      861.808
09/23/2013  02:16:00      -53.068      -12.879       -7.619       11.131        9.560        7.344      123.908       91.388       53.935        0.165        0.013       54.609        4.379        0.006      337.666        9.796      861.794
09/23/2013  02:17:00      -56.920       -8.852       -5.902       21.866       11.356        9.972      478.142      128.959       99.450        0.203        0.035       57.604        9.751        0.029      337.622        9.721      861.778
09/23/2013  02:18:00      -90.674        1.779      -10.927       16.732       13.533        8.312      279.954      183.140       69.093        0.444        0.027       90.691        5.522        0.004      337.632        9.737      861.766
09/23/2013  02:19:00      -97.955       -4.256      -10.572       24.515       13.732       13.204      600.979      188.570      174.358        0.534        0.048       98.047       13.279        0.018      337.580        9.649      861.761
09/23/2013  02:20:00     -114.065       -4.244      -12.143       23.551       19.914       14.315      554.658      396.552      204.916        0.717        0.058      114.144       10.068        0.008      337.503        9.522      861.742
09/23/2013  02:21:00     -103.124       -9.942       -8.839       24.119       21.403       14.001      581.705      458.067      196.027        0.602        0.062      103.602       11.042        0.011      337.415        9.373      861.714
09/23/2013  02:22:00      -91.328       -7.068      -12.088       33.486       21.375       16.167     1121.324      456.898      261.359        0.519        0.092       91.601       16.720        0.033      337.417        9.376      861.692
09/23/2013  02:23:00      -78.771      -12.515       -6.600       34.392       15.161       14.193     1182.781      229.848      201.441        0.401        0.081       79.759       16.210        0.041      337.385        9.323      861.695
09/23/2013  02:24:00      -48.247      -32.644      -10.947       20.344       17.950       13.563      413.879      322.220      183.961        0.222        0.046       58.253       10.562        0.033      337.396        9.341      861.701
09/23/2013  02:25:00      -52.066      -37.053       -4.224       28.936       19.800       12.372      837.302      392.043      153.058        0.274        0.069       63.904        8.983        0.020      337.453        9.437      861.703
09/23/2013  02:26:00      -39.038      -22.213       -0.672       38.047       21.839       15.761     1447.558      476.961      248.414        0.209        0.109       44.915       17.940        0.160      337.390        9.331      861.710
09/23/2013  02:27:00      -49.317      -37.530       -6.593       23.582       18.161       14.155      556.132      329.804      200.355        0.249        0.054       61.973       12.282        0.039      337.412        9.368      861.721
09/23/2013  02:28:00      -48.857      -42.456       -1.479       26.569       23.728       16.317      705.922      563.027      266.236        0.286        0.077       64.726       12.800        0.039      337.394        9.338      861.724
09/23/2013  02:29:00      -51.490      -10.203       -1.591       20.105       16.743       17.794      404.192      280.331      316.642        0.188        0.050       52.491        6.547        0.016      337.407        9.360      861.734
09/23/2013  02:30:00      -32.091      -13.256       -2.169       23.798       21.296       16.153      566.334      453.527      260.922        0.125        0.064       34.721       12.806        0.136      337.445        9.422      861.755
09/23/2013  02:31:00      -37.968       -7.770       -4.190       19.448       13.844       14.599      378.236      191.668      213.139        0.115        0.039       38.755        9.599        0.061      337.530        9.567      861.764
09/23/2013  02:32:00      -49.249      -19.691       -6.359       12.721       13.730       10.282      161.815      188.520      105.723        0.165        0.023       53.040        6.174        0.014      337.551        9.601      861.769
09/23/2013  02:33:00      -52.706      -19.265       -9.760       18.718       11.881       11.034      350.351      141.168      121.739        0.193        0.031       56.117        5.940        0.011      337.522        9.552      861.773
09/23/2013  02:34:00       -0.925      -27.858        7.363       10.605       11.973       10.633      112.467      143.346      113.067        0.060        0.018       27.873        4.055        0.021      337.512        9.535      861.784
09/23/2013  02:35:00      -24.098      -14.006       -0.157       27.936       12.913       13.053      780.401      166.740      170.384        0.095        0.056       27.872       16.351        0.344      337.410        9.364      861.773
09/23/2013  02:36:00      -59.106      -31.799       -8.094       11.422        8.534        7.348      130.451       72.825       53.990        0.241        0.013       67.117        4.081        0.004      337.415        9.373      861.763
09/23/2013  02:37:00      -62.617      -29.029       -6.688       11.100        9.557        7.019      123.204       91.345       49.266        0.254        0.013       69.019        3.534        0.003      337.468        9.461      861.756
09/23/2013  02:38:00      -54.450      -27.772      -12.158       10.907       12.050        8.978      118.963      145.198       80.598        0.211        0.017       61.124        5.652        0.009      337.485        9.490      861.751
09/23/2013  02:39:00      -82.243      -36.832       -4.556       22.619       12.623       12.071      511.601      159.328      145.715        0.448        0.041       90.114        7.257        0.006      337.423        9.388      861.739
09/23/2013  02:40:00      -48.701      -32.349        2.931       43.345       20.479       14.849     1878.784      419.395      220.482        0.297        0.126       58.466       15.473        0.070      337.392        9.334      861.724
09/23/2013  02:41:00      -44.591      -35.724        6.982       33.971       25.269       22.120     1154.003      638.525      489.308        0.280        0.114       57.137       19.289        0.114      337.417        9.375      861.717
09/23/2013  02:42:00      -79.552      -42.148       -4.192       36.569       24.215       25.482     1337.297      586.371      649.342        0.535        0.129       90.028       15.567        0.030      337.425        9.390      861.716
09/23/2013  02:43:00     -114.985      -74.700       -9.732       33.898       33.182       20.884     1149.097     1101.078      436.123        1.079        0.134      137.119       15.465        0.013      337.436        9.409      861.714
09/23/2013  02:44:00     -110.901      -61.152       -2.558       39.148       29.400       19.516     1532.588      864.373      380.887        0.941        0.139      126.644       17.424        0.019      337.360        9.281      861.704
09/23/2013  02:45:00     -121.704      -52.870        2.030       30.490       19.098       16.999      929.643      364.734      288.965        0.960        0.079      132.692       16.154        0.015      337.320        9.214      861.699
09/23/2013  02:46:00     -113.807      -51.548        2.774       30.916       23.431       15.326      955.790      549.028      234.896        0.868        0.087      124.937       13.974        0.013      337.319        9.213      861.697
09/23/2013  02:47:00      -85.221      -40.724        5.080       29.762       28.648       19.569      885.781      820.714      382.939        0.552        0.104       94.451       19.225        0.041      337.256        9.107      861.715
09/23/2013  02:48:00      -94.057      -42.475        5.483       31.896       25.674       17.847     1017.337      659.137      318.501        0.634        0.100      103.203       16.961        0.027      337.315        9.206      861.724
09/23/2013  02:49:00      -70.297      -51.729        6.192       37.574       34.859       19.943     1411.817     1215.123      397.731        0.534        0.151       87.279       19.605        0.050      337.377        9.309      861.728
09/23/2013  02:50:00      -51.172      -36.483        3.457       34.323       25.100       17.351     1178.050      630.016      301.053        0.303        0.105       62.846       17.318        0.076      337.422        9.386      861.727
09/23/2013  02:51:00      -47.112      -28.178        4.907       25.159       25.483       19.685      632.958      649.369      387.495        0.235        0.083       54.896       18.022        0.108      337.398        9.345      861.732
09/23/2013  02:52:00      -68.486      -32.605        3.360       21.708       17.715       14.869      471.218      313.838      221.074        0.339        0.050       75.852       13.588        0.032      337.452        9.435      861.756
09/23/2013  02:53:00      -71.209      -16.799       -3.406       12.520       19.153        8.785      156.742      366.842       77.174        0.298        0.030       73.164        5.952        0.007      337.483        9.487      861.755
09/23/2013  02:54:00      -40.849      -15.966       -4.425       21.539       12.366        9.314      463.938      152.919       86.746        0.132        0.035       43.859        9.032        0.042      337.418        9.377      861.755
09/23/2013  02:55:00      -50.048      -14.024       -3.171       13.707       11.805        8.616      187.880      139.367       74.231        0.156        0.020       51.976        5.075        0.010      337.401        9.349      861.762
09/23/2013  02:56:00      -35.329      -10.104       -5.216       17.661       13.456        9.453      311.909      181.075       89.363        0.098        0.029       36.745        9.453        0.066      337.316        9.210      861.761
09/23/2013  02:57:00      -20.004        2.667       -2.250       15.969       13.803        9.136      255.017      190.526       83.462        0.047        0.026       20.180        7.707        0.146      337.197        9.009      861.754
09/23/2013  02:58:00      -38.159        4.230       -3.026       22.364       10.937        7.907      500.157      119.607       62.522        0.108        0.034       38.393        6.428        0.028      337.151        8.933      861.740
09/23/2013  02:59:00      -66.920        0.840       -5.336       15.355       12.581        6.777      235.779      158.275       45.928        0.247        0.022       66.925        4.150        0.004      337.260        9.114      861.721
09/23/2013  03:00:00      -63.297      -18.794       -5.882       14.263       15.135        9.300      203.419      229.063       86.493        0.246        0.026       66.028        8.072        0.015      337.217        9.043      861.705
09/23/2013  03:01:00      -60.340      -17.417       -8.291       20.506       17.389       13.652      420.508      302.381      186.385        0.246        0.045       62.804       12.452        0.039      337.198        9.011      861.708
09/23/2013  03:02:00      -76.344      -22.421      -10.267       19.854       19.120       10.589      394.183      365.582      112.120        0.365        0.044       79.569        4.854        0.004      337.192        9.001      861.701
09/23/2013  03:03:00      -73.461      -32.689       -6.869       22.543       24.765       10.326      508.171      613.282      106.620        0.387        0.061       80.406        8.702        0.012      337.147        8.924      861.694
09/23/2013  03:04:00      -34.016       -6.688        4.554       25.624       16.095        9.098      656.602      259.060       82.769        0.111        0.050       34.667        6.115        0.031      337.103        8.851      861.689
09/23/2013  03:05:00      -28.348       13.211       -5.751       12.841       16.463        9.475      164.891      271.020       89.774        0.077        0.026       31.275        6.108        0.038      337.124        8.887      861.698
09/23/2013  03:06:00       20.191       18.635       -1.062       17.844       11.481       10.240      318.420      131.825      104.850        0.066        0.028       27.476        7.665        0.078      337.191        8.999      861.706
09/23/2013  03:07:00       15.056       12.441       -2.368       13.768       11.959       10.590      189.544      143.029      112.141        0.042        0.022       19.532        9.190        0.221      337.299        9.179      861.712
09/23/2013  03:08:00      -26.656       43.405      -16.979       21.132       35.513       12.369      446.562     1261.181      152.982        0.237        0.093       50.937        8.006        0.025      337.580        9.650      861.714
09/23/2013  03:09:00      -45.270       10.690       -5.299       14.531       14.287        7.998      211.145      204.118       63.972        0.134        0.024       46.515        5.319        0.013      337.464        9.455      861.712
09/23/2013  03:10:00      -54.850        7.402       -3.134       10.678       10.249        7.188      114.025      105.036       51.665        0.167        0.014       55.347        4.598        0.007      337.607        9.696      861.710
09/23/2013  03:11:00      -50.842      -10.588       -2.526       13.580       18.662       11.695      184.416      348.257      136.774        0.169        0.033       51.933       12.677        0.060      337.380        9.316      861.709
09/23/2013  03:12:00      -69.687      -18.868      -13.987        8.651        8.825        8.229       74.842       77.884       67.723        0.281        0.011       72.196        5.219        0.005      337.223        9.054      861.694
09/23/2013  03:13:00      -73.626      -29.645      -10.301        9.877       10.573        7.707       97.554      111.780       59.395        0.334        0.013       79.370        3.912        0.002      337.196        9.008      861.676
09/23/2013  03:14:00      -69.835      -41.034      -11.911       11.206        9.105        9.496      125.567       82.903       90.176        0.350        0.015       80.998        6.655        0.007      337.213        9.036      861.666
09/23/2013  03:15:00      -80.567      -35.198      -10.071        9.841        9.379        6.427       96.851       87.963       41.312        0.403        0.011       87.920        4.413        0.003      337.244        9.089      861.665
09/23/2013  03:16:00      -92.291      -30.387       -7.702       10.341       13.312        8.719      106.940      177.208       76.027        0.493        0.018       97.165        3.697        0.001      337.255        9.105      861.679
09/23/2013  03:17:00      -74.801      -24.370       -8.504       14.931       14.217        8.259      222.929      202.127       68.210        0.338        0.025       78.671        6.899        0.008      337.284        9.154      861.693
09/23/2013  03:18:00      -42.107      -18.922       -1.004       16.720       12.326        7.315      279.547      151.930       53.506        0.131        0.024       46.163        5.957        0.017      337.347        9.260      861.706
09/23/2013  03:19:00      -31.815      -10.658       -8.852       10.848       10.954        5.677      117.689      119.979       32.230        0.074        0.013       33.553        5.721        0.029      337.642        9.756      861.719
09/23/2013  03:20:00      -11.065       -9.377       -3.271       11.587        6.655        5.536      134.260       44.292       30.642        0.022        0.010       14.504        5.966        0.169      337.519        9.547      861.731
09/23/2013  03:21:00      -11.916      -12.810       -5.572       12.332        8.526        5.549      152.078       72.699       30.796        0.030        0.013       17.495        3.831        0.048      337.550        9.599      861.743
09/23/2013  03:22:00      -34.330      -14.305        0.933       15.292        8.620        7.753      233.832       74.301       60.104        0.088        0.018       37.192        4.521        0.015      337.412        9.367      861.766
09/23/2013  03:23:00      -38.681      -10.848       -0.231       10.738        8.292        6.935      115.299       68.762       48.101        0.092        0.012       40.174        2.728        0.005      337.298        9.179      861.769
09/23/2013  03:24:00      -25.366        4.344       -1.882        5.431        4.804        4.216       29.497       23.081       17.771        0.037        0.004       25.735        2.767        0.012      337.282        9.152      861.763
09/23/2013  03:25:00      -60.849      -10.114       -3.717       16.693        8.494        7.350      278.672       72.155       54.026        0.211        0.020       61.683        6.065        0.010      337.355        9.273      861.748
09/23/2013  03:26:00     -110.316      -45.046       -7.510       19.068       18.322       10.805      363.595      335.712      116.738        0.754        0.041      119.158        3.665        0.001      337.255        9.106      861.740
09/23/2013  03:27:00     -101.820      -56.104       -0.697       43.947       28.496       18.462     1931.327      812.023      340.832        0.830        0.154      116.254       20.205        0.030      337.161        8.948      861.730
09/23/2013  03:28:00     -117.797      -53.910       -1.531       38.185       29.640       16.599     1458.107      878.552      275.526        0.970        0.131      129.547       19.403        0.022      337.171        8.966      861.722
09/23/2013  03:29:00      -95.115      -62.536        2.038       51.210       30.224       22.507     2622.471      913.511      506.547        0.850        0.202      113.832       24.603        0.047      337.169        8.963      861.719
09/23/2013  03:30:00      -41.308      -29.469        6.688       42.053       27.439       19.968     1768.415      752.884      398.703        0.277        0.146       50.742       20.033        0.156      337.157        8.941      861.716
09/23/2013  03:31:00      -82.813      -56.096       -4.486       33.115       24.242       15.088     1096.577      587.682      227.652        0.597        0.096      100.024        8.837        0.008      337.177        8.974      861.716
09/23/2013  03:32:00      -84.065      -53.872       -0.087       38.429       34.222       17.747     1476.813     1171.133      314.966        0.647        0.148       99.845       10.783        0.012      337.191        9.000      861.715
09/23/2013  03:33:00      -61.151      -55.014        6.343       44.630       35.793       22.957     1991.801     1281.160      527.044        0.530        0.190       82.256       18.596        0.051      337.146        8.924      861.723
09/23/2013  03:34:00     -112.393      -57.929       -4.052       49.766       45.289       28.432     2476.626     2051.057      808.365        1.067        0.267      126.443       27.006        0.046      337.104        8.854      861.735
09/23/2013  03:35:00     -152.982      -93.201       -4.970       66.590       41.842       30.874     4434.249     1750.714      953.208        1.963        0.357      179.137       32.540        0.033      337.062        8.781      861.729
09/23/2013  03:36:00      -95.574      -48.248       10.743       56.910       46.618       33.430     3238.729     2173.200     1117.594        0.905        0.326      107.062       31.428        0.086      337.001        8.679      861.719
09/23/2013  03:37:00     -159.959      -67.382       -2.690       38.751       44.729       30.602     1501.627     2000.714      936.500        1.729        0.222      173.572       21.004        0.015      337.013        8.699      861.704
09/23/2013  03:38:00     -125.928      -52.791       -1.726       53.535       47.819       29.816     2865.965     2286.646      888.982        1.234        0.302      136.546       31.232        0.052      336.977        8.639      861.696
09/23/2013  03:39:00     -126.585      -38.622        0.008       59.650       39.970       33.534     3558.117     1597.603     1124.562        1.190        0.314      132.346       34.942        0.070      336.903        8.516      861.709
09/23/2013  03:40:00     -120.783      -30.924       -7.364       35.763       25.747       17.601     1278.977      662.913      309.794        0.892        0.113      124.679       19.241        0.024      336.892        8.498      861.722
09/23/2013  03:41:00      -81.246        7.388       -7.260       37.387       21.604       18.770     1397.808      466.732      352.321        0.446        0.111       81.581       20.343        0.062      336.940        8.577      861.731
09/23/2013  03:42:00      -38.060      -10.438        2.050       20.457       16.444       12.239      418.501      270.404      149.797        0.120        0.042       39.465        8.309        0.044      336.941        8.579      861.724
09/23/2013  03:43:00      -64.763        7.037       -0.315       22.642       14.402       11.483      512.672      207.416      131.858        0.255        0.043       65.145        2.981        0.002      336.998        8.673      861.713
09/23/2013  03:44:00      -96.873        9.789       -7.250       12.321       14.788       11.044      151.807      218.673      121.974        0.501        0.025       97.366        7.385        0.006      337.074        8.802      861.704
09/23/2013  03:45:00     -146.657       16.786      -13.653       31.002       19.671       15.321      961.119      386.934      234.736        1.178        0.079      147.614       14.505        0.010      337.044        8.750      861.687
09/23/2013  03:46:00     -151.297       25.020      -18.611       35.539       42.679       24.292     1263.039     1821.476      590.092        1.377        0.184      153.351       16.305        0.011      336.901        8.513      861.657
09/23/2013  03:47:00     -153.799      -32.872       -8.785       39.133       42.561       22.372     1531.404     1811.436      500.507        1.433        0.192      157.273       14.741        0.009      336.850        8.428      861.629
09/23/2013  03:48:00     -143.415      -62.818       -7.548       40.972       40.804       26.828     1678.718     1664.978      719.754        1.432        0.203      156.569       21.875        0.020      336.778        8.309      861.615
09/23/2013  03:49:00     -108.542      -40.817        2.127       45.863       49.431       31.110     2103.432     2443.408      967.812        0.948        0.276      115.963       18.854        0.026      336.749        8.261      861.595
09/23/2013  03:50:00     -116.653       -0.372       -3.379       52.896       43.373       28.356     2798.023     1881.208      804.044        0.955        0.274      116.653       25.010        0.046      336.762        8.281      861.587
09/23/2013  03:51:00      -99.337        3.630       -3.757       46.129       41.148       24.821     2127.907     1693.166      616.058        0.717        0.222       99.403       19.234        0.037      336.768        8.291      861.587
09/23/2013  03:52:00      -54.433      -16.863       -6.331       26.718       17.727       16.319      713.828      314.242      266.307        0.229        0.065       56.985       11.308        0.039      336.766        8.289      861.602
09/23/2013  03:53:00      -36.244      -41.599        1.853       35.935       27.111       20.265     1291.298      734.984      410.666        0.274        0.122       55.174       16.991        0.095      336.851        8.431      861.615
09/23/2013  03:54:00      -33.861       -0.690       -4.838       17.295        9.026       11.615      299.113       81.473      134.915        0.084        0.026       33.868        9.878        0.085      336.871        8.462      861.627
09/23/2013  03:55:00       -5.451      -16.158      -14.602       18.925       11.714       10.268      358.151      137.208      105.441        0.055        0.030       17.053        9.108        0.285      336.886        8.487      861.641
09/23/2013  03:56:00        5.322      -31.401       -3.494       12.508       12.913       14.582      156.446      166.741      212.622        0.078        0.027       31.848        6.110        0.037      336.962        8.616      861.653
09/23/2013  03:57:00      -16.538      -13.160        2.711       34.034       14.373       11.135     1158.283      206.579      123.999        0.097        0.074       21.135       13.361        0.400      337.008        8.691      861.656
09/23/2013  03:58:00      -74.310       -7.686       -7.609       15.214       15.692       14.545      231.476      246.229      211.561        0.316        0.034       74.706       10.152        0.018      336.989        8.659      861.660
09/23/2013  03:59:00      -66.675       -0.422       -6.429       20.945       17.108       11.232      438.698      292.683      126.165        0.267        0.043       66.676       10.555        0.025      336.963        8.616      861.666
09/23/2013  04:00:00      -66.949        0.760       -5.099       26.213       12.582       11.960      687.142      158.303      143.046        0.275        0.049       66.954       12.742        0.036      336.928        8.559      861.670
09/23/2013  04:01:00      -49.606      -21.260       -9.483       23.083       13.998       10.483      532.839      195.935      109.897        0.192        0.042       53.969        5.468        0.010      336.916        8.537      861.665
09/23/2013  04:02:00      -33.423      -16.937       -1.120       26.790       15.145        9.276      717.678      229.371       86.052        0.122        0.052       37.470       12.840        0.117      336.949        8.591      861.672
09/23/2013  04:03:00      -35.697       -1.488       -2.612       11.420        6.951        8.788      130.426       48.310       77.222        0.077        0.013       35.728        7.119        0.040      336.907        8.522      861.703
09/23/2013  04:04:00       -6.698       -3.537       -9.573       19.688       11.478        7.197      387.600      131.745       51.795        0.036        0.029        7.574        8.380        1.224      336.957        8.607      861.717
09/23/2013  04:05:00        4.833      -13.733        8.979       10.768       16.709        8.658      115.955      279.193       74.958        0.038        0.024       14.559       10.412        0.511      336.993        8.667      861.722
09/23/2013  04:06:00      -18.889      -13.996        4.447       18.707       28.849       14.898      349.950      832.250      221.952        0.099        0.070       23.510       12.914        0.302      337.047        8.756      861.732
09/23/2013  04:07:00      -95.213       38.827      -22.544       25.252       22.708       15.251      637.657      515.643      232.589        0.623        0.069      102.826        6.889        0.004      336.913        8.532      861.749
09/23/2013  04:08:00     -128.301       -7.195      -16.365       25.436       24.206       19.326      646.974      585.933      373.492        0.919        0.080      128.502       13.800        0.012      336.953        8.598      861.749
09/23/2013  04:09:00     -109.335      -38.563       -8.405       46.732       29.190       21.514     2183.888      852.063      462.863        0.850        0.175      115.936       20.878        0.032      336.946        8.587      861.753
09/23/2013  04:10:00     -142.290      -55.426       -9.377       28.981       36.511       16.771      839.880     1333.077      281.255        1.293        0.123      152.704       15.233        0.010      336.984        8.652      861.764
09/23/2013  04:11:00      -88.593      -59.387        1.421       64.066       40.954       27.929     4104.465     1677.240      780.046        0.897        0.328      106.656       30.204        0.080      336.906        8.520      861.777
09/23/2013  04:12:00     -146.651      -83.997       -7.851       41.231       30.961       27.911     1700.033      958.605      779.003        1.603        0.172      169.003       21.741        0.017      336.912        8.531      861.788
09/23/2013  04:13:00     -109.419      -41.092       -4.129       39.580       38.087       25.387     1566.604     1450.646      644.522        0.867        0.183      116.880       26.833        0.053      336.909        8.527      861.802
09/23/2013  04:14:00      -93.053      -11.805       -6.597       29.835       20.926       19.605      890.115      437.900      384.366        0.528        0.086       93.799       17.782        0.036      336.842        8.416      861.805
09/23/2013  04:15:00      -58.629      -19.984       -1.620       19.292       14.973       12.534      372.178      224.181      157.105        0.230        0.038       61.941        8.330        0.018      336.874        8.468      861.818
09/23/2013  04:16:00      -31.887      -29.904       -4.905       26.716        9.983       11.766      713.745       99.654      138.447        0.144        0.048       43.715       11.211        0.066      336.962        8.615      861.857
09/23/2013  04:17:00      -63.085       -2.076       -3.302       19.258       12.610       16.375      370.861      159.015      268.130        0.240        0.040       63.119       14.815        0.055      337.001        8.680      861.877
09/23/2013  04:18:00      -19.771      -29.767       -2.880       25.149       17.723        9.862      632.497      314.111       97.265        0.116        0.052       35.735        7.399        0.043      337.042        8.746      861.889
09/23/2013  04:19:00      -29.727      -78.114      -12.992       23.528       33.566       15.291      553.573     1126.680      233.814        0.453        0.096       83.579       15.883        0.036      337.024        8.718      861.885
09/23/2013  04:20:00      -51.443      -66.138       -6.421       37.944       44.910       20.241     1439.735     2016.918      409.697        0.546        0.193       83.789       17.473        0.043      337.053        8.766      861.881
09/23/2013  04:21:00      -71.728      -46.310        5.090       49.679       42.130       25.058     2468.033     1774.967      627.880        0.609        0.244       85.379       24.540        0.083      336.969        8.625      861.880
09/23/2013  04:22:00      -71.656      -66.120       -3.095       65.171       42.135       30.100     4247.227     1775.386      906.025        0.822        0.346       97.501       27.659        0.080      336.943        8.584      861.880
09/23/2013  04:23:00     -117.233     -121.609       14.393       61.484       46.229       43.505     3780.252     2137.088     1892.668        1.827        0.391      168.915       43.800        0.067      336.946        8.587      861.874
09/23/2013  04:24:00     -128.610     -112.236       10.000       55.277       49.072       39.204     3055.598     2408.098     1536.941        1.812        0.350      170.697       34.759        0.041      336.941        8.579      861.879
09/23/2013  04:25:00      -95.858      -89.333        7.603       66.623       44.831       30.371     4438.634     2009.854      922.379        1.230        0.369      131.031       30.795        0.055      336.904        8.519      861.888
09/23/2013  04:26:00     -124.731      -73.083       -0.606       31.899       39.178       22.774     1017.532     1534.931      518.650        1.198        0.154      144.565       19.639        0.018      336.950        8.595      861.895
09/23/2013  04:27:00      -96.087      -30.186       -6.047       26.252       17.656       13.081      689.163      311.749      171.110        0.568        0.059      100.717        7.680        0.006      336.963        8.614      861.899
09/23/2013  04:28:00      -92.817      -24.599      -14.090       13.159       13.843       13.801      173.157      191.639      190.459        0.499        0.028       96.022        7.578        0.006      336.957        8.606      861.900
09/23/2013  04:29:00      -52.844      -15.156       -4.327       18.505       18.592       14.366      342.429      345.673      206.384        0.197        0.045       54.974       12.871        0.055      336.989        8.659      861.905
09/23/2013  04:30:00      -89.383       -6.273      -11.031       26.858       21.766       17.876      721.357      473.748      319.566        0.483        0.076       89.602       15.157        0.029      336.871        8.462      861.913
09/23/2013  04:31:00      -86.651      -32.843       -4.108       24.356       19.881       10.528      593.198      395.258      110.847        0.485        0.055       92.667       11.544        0.016      336.819        8.377      861.914
09/23/2013  04:32:00      -99.442      -52.142       -6.335       15.871       14.764       14.110      251.904      217.985      199.094        0.666        0.033      112.283       10.286        0.008      336.919        8.543      861.909
09/23/2013  04:33:00      -73.259      -45.463        2.284       31.970       21.665       17.191     1022.102      469.355      295.522        0.461        0.089       86.219       15.609        0.033      336.863        8.449      861.892
